createdAt,value
2023-05-05T00:01:22.175Z,35.80
2023-05-05T00:03:53.985Z,34.10
2023-05-05T00:06:25.732Z,35.00
2023-05-05T00:08:57.478Z,32.00
2023-05-05T00:11:29.342Z,32.60
2023-05-05T00:14:02.053Z,31.80
2023-05-05T00:16:34.237Z,32.70
2023-05-05T00:19:06.695Z,32.20
2023-05-05T00:21:38.467Z,32.30
2023-05-05T00:24:10.922Z,28.00
2023-05-05T00:26:42.770Z,31.80
2023-05-05T00:29:14.531Z,30.10
2023-05-05T00:31:46.302Z,30.70
2023-05-05T00:34:18.381Z,30.20
2023-05-05T00:36:50.308Z,30.70
2023-05-05T00:39:22.209Z,32.00
2023-05-05T00:41:54.250Z,30.50
2023-05-05T00:44:40.427Z,30.40
2023-05-05T00:47:12.414Z,31.10
2023-05-05T00:49:45.107Z,30.70
2023-05-05T00:52:17.243Z,30.80
2023-05-05T00:54:49.320Z,31.30
2023-05-05T00:57:21.796Z,30.60
2023-05-05T00:59:53.975Z,29.40
2023-05-05T01:02:25.991Z,30.60
2023-05-05T01:04:59.166Z,28.10
2023-05-05T01:07:37.447Z,30.30
2023-05-05T01:10:20.155Z,29.30
2023-05-05T01:12:59.960Z,34.00
2023-05-05T01:15:35.672Z,30.50
2023-05-05T01:18:16.434Z,29.50
2023-05-05T01:23:33.942Z,31.90
2023-05-05T01:26:25.843Z,38.70
2023-05-05T01:29:08.200Z,35.90
2023-05-05T01:31:53.741Z,36.10
2023-05-05T01:34:29.276Z,36.10
2023-05-05T01:37:08.779Z,32.20
2023-05-05T01:39:41.972Z,30.40
2023-05-05T01:42:15.144Z,34.00
2023-05-05T01:44:49.218Z,32.20
2023-05-05T01:47:22.395Z,32.70
2023-05-05T01:49:54.860Z,34.10
2023-05-05T01:52:27.054Z,32.40
2023-05-05T01:54:59.965Z,31.90
2023-05-05T01:57:33.225Z,32.90
2023-05-05T02:00:06.024Z,30.70
2023-05-05T02:02:48.215Z,33.90
2023-05-05T02:05:22.837Z,32.30
2023-05-05T02:10:25.625Z,31.20
2023-05-05T02:12:57.860Z,31.70
2023-05-05T02:15:33.707Z,31.70
2023-05-05T02:18:08.623Z,31.60
2023-05-05T02:20:43.674Z,36.40
2023-05-05T02:23:17.805Z,32.90
2023-05-05T02:25:53.076Z,34.00
2023-05-05T02:28:30.593Z,36.00
2023-05-05T02:31:03.449Z,35.90
2023-05-05T02:33:36.373Z,34.40
2023-05-05T02:36:15.940Z,33.70
2023-05-05T02:38:56.841Z,33.40
2023-05-05T02:41:31.479Z,37.20
2023-05-05T02:44:05.933Z,33.20
2023-05-05T02:46:40.125Z,32.20
2023-05-05T02:49:11.917Z,31.80
2023-05-05T02:51:43.873Z,33.40
2023-05-05T02:54:22.692Z,30.30
2023-05-05T02:56:56.695Z,30.70
2023-05-05T02:59:34.679Z,32.40
2023-05-05T03:02:15.486Z,32.90
2023-05-05T03:04:50.257Z,32.80
2023-05-05T03:07:25.091Z,32.60
2023-05-05T03:10:07.848Z,31.90
2023-05-05T03:12:46.796Z,30.40
2023-05-05T03:15:26.625Z,34.00
2023-05-05T03:17:59.666Z,31.60
2023-05-05T03:20:32.329Z,33.30
2023-05-05T03:23:08.287Z,32.90
2023-05-05T03:25:47.907Z,34.00
2023-05-05T03:28:26.332Z,36.80
2023-05-05T03:30:58.888Z,34.80
2023-05-05T03:33:31.315Z,36.30
2023-05-05T03:36:04.546Z,35.00
2023-05-05T03:38:36.258Z,33.20
2023-05-05T03:41:10.361Z,37.70
2023-05-05T03:43:42.446Z,35.60
2023-05-05T03:46:14.975Z,34.60
2023-05-05T03:48:48.759Z,40.80
2023-05-05T03:51:21.040Z,34.20
2023-05-05T03:53:52.867Z,32.90
2023-05-05T03:56:24.653Z,39.60
2023-05-05T03:58:56.752Z,36.10
2023-05-05T04:01:29.953Z,39.50
2023-05-05T04:04:02.156Z,44.80
2023-05-05T04:06:34.038Z,41.10
2023-05-05T04:09:06.193Z,37.20
2023-05-05T04:11:38.075Z,39.10
2023-05-05T04:14:10.214Z,40.70
2023-05-05T04:16:43.128Z,41.60
2023-05-05T04:19:15.072Z,39.40
2023-05-05T04:21:47.976Z,37.80
2023-05-05T04:24:23.106Z,38.90
2023-05-05T04:26:55.085Z,36.30
2023-05-05T04:29:26.954Z,37.80
2023-05-05T04:31:58.740Z,34.70
2023-05-05T04:34:31.880Z,39.10
2023-05-05T04:37:04.644Z,39.30
2023-05-05T04:39:36.696Z,38.40
2023-05-05T04:42:08.928Z,38.90
2023-05-05T04:44:41.658Z,40.20
2023-05-05T04:47:14.662Z,42.90
2023-05-05T04:49:46.759Z,42.50
2023-05-05T04:52:18.593Z,26.40
2023-05-05T04:54:50.486Z,54.70
2023-05-05T04:57:22.569Z,49.00
2023-05-05T04:59:54.556Z,47.40
2023-05-05T05:02:27.133Z,45.60
2023-05-05T05:04:58.996Z,41.40
2023-05-05T05:07:30.759Z,41.80
2023-05-05T05:10:02.679Z,39.60
2023-05-05T05:12:34.716Z,40.60
2023-05-05T05:15:08.124Z,39.30
2023-05-05T05:17:40.055Z,39.00
2023-05-05T05:20:14.428Z,37.60
2023-05-05T05:27:58.476Z,29.80
2023-05-05T05:30:41.974Z,30.90
2023-05-05T05:33:14.696Z,30.40
2023-05-05T05:35:46.723Z,26.80
2023-05-05T05:38:18.710Z,26.50
2023-05-05T05:40:50.783Z,29.20
2023-05-05T05:43:22.739Z,25.50
2023-05-05T05:45:55.255Z,17.00
2023-05-05T05:48:28.586Z,24.00
2023-05-05T05:51:02.147Z,24.10
2023-05-05T05:53:34.088Z,22.10
2023-05-05T05:56:06.807Z,22.20
2023-05-05T05:58:39.080Z,21.60
2023-05-05T06:01:11.318Z,22.40
2023-05-05T06:03:43.244Z,21.40
2023-05-05T06:06:15.304Z,18.80
2023-05-05T06:08:47.427Z,11.50
2023-05-05T06:11:19.261Z,17.90
2023-05-05T06:13:51.176Z,17.90
2023-05-05T06:16:23.042Z,17.50
2023-05-05T06:18:55.328Z,16.70
2023-05-05T06:21:27.764Z,17.10
2023-05-05T06:23:59.783Z,14.80
2023-05-05T06:26:32.568Z,16.90
2023-05-05T06:29:04.440Z,14.20
2023-05-05T06:31:36.549Z,13.80
2023-05-05T06:34:08.510Z,13.40
2023-05-05T06:36:40.588Z,12.90
2023-05-05T06:39:13.982Z,13.80
2023-05-05T06:41:47.352Z,12.00
2023-05-05T06:44:19.108Z,13.10
2023-05-05T06:46:51.378Z,13.40
2023-05-05T06:49:23.145Z,11.90
2023-05-05T06:51:54.906Z,12.60
2023-05-05T06:54:26.871Z,12.80
2023-05-05T06:56:59.666Z,13.60
2023-05-05T06:59:31.538Z,9.50
2023-05-05T07:02:03.321Z,11.90
2023-05-05T07:04:35.712Z,9.90
2023-05-05T07:07:07.595Z,8.20
2023-05-05T07:09:39.352Z,10.50
2023-05-05T07:12:11.400Z,9.90
2023-05-05T07:14:43.312Z,10.00
2023-05-05T07:17:15.107Z,9.10
2023-05-05T07:19:46.885Z,10.00
2023-05-05T07:22:18.628Z,9.10
2023-05-05T07:24:53.241Z,10.30
2023-05-05T07:27:25.254Z,10.30
2023-05-05T07:29:57.059Z,10.30
2023-05-05T07:32:29.026Z,10.00
2023-05-05T07:35:00.859Z,9.20
2023-05-05T07:37:32.709Z,9.60
2023-05-05T07:40:04.659Z,10.20
2023-05-05T07:42:36.642Z,10.50
2023-05-05T07:45:10.296Z,9.80
2023-05-05T07:47:42.730Z,9.00
2023-05-05T07:50:14.794Z,10.20
2023-05-05T07:52:51.820Z,10.00
2023-05-05T07:55:28.333Z,9.70
2023-05-05T07:58:00.072Z,10.70
2023-05-05T08:00:32.057Z,10.10
2023-05-05T08:03:03.960Z,8.80
2023-05-05T08:05:36.039Z,10.30
2023-05-05T08:08:08.095Z,9.10
2023-05-05T08:10:39.917Z,9.60
2023-05-05T08:13:11.817Z,10.10
2023-05-05T08:15:45.198Z,9.70
2023-05-05T08:18:17.372Z,9.90
2023-05-05T08:20:49.525Z,11.20
2023-05-05T08:23:21.578Z,11.30
2023-05-05T08:25:53.477Z,9.10
2023-05-05T08:28:25.239Z,8.90
2023-05-05T08:30:57.089Z,8.60
2023-05-05T08:33:28.841Z,8.80
2023-05-05T08:36:00.896Z,10.30
2023-05-05T08:38:32.899Z,9.90
2023-05-05T08:41:04.789Z,9.30
2023-05-05T08:43:36.869Z,12.60
2023-05-05T08:46:09.183Z,10.80
2023-05-05T08:48:42.409Z,11.30
2023-05-05T08:51:17.955Z,10.30
2023-05-05T08:53:58.515Z,10.80
2023-05-05T08:56:34.807Z,12.10
2023-05-05T08:59:06.907Z,10.90
2023-05-05T09:01:38.884Z,12.50
2023-05-05T09:04:11.930Z,11.80
2023-05-05T09:06:44.281Z,13.50
2023-05-05T09:09:16.418Z,9.50
2023-05-05T09:11:48.802Z,11.80
2023-05-05T09:14:20.607Z,11.00
2023-05-05T09:16:52.430Z,9.00
2023-05-05T09:19:24.298Z,13.60
2023-05-05T09:21:56.407Z,7.90
2023-05-05T09:24:28.186Z,12.20
2023-05-05T09:27:01.664Z,11.00
2023-05-05T09:29:33.697Z,12.40
2023-05-05T09:32:08.860Z,10.20
2023-05-05T09:34:41.002Z,10.30
2023-05-05T09:37:12.877Z,12.80
2023-05-05T09:39:56.090Z,11.90
2023-05-05T09:42:28.027Z,10.90
2023-05-05T09:45:00.220Z,10.80
2023-05-05T09:47:38.314Z,11.10
2023-05-05T09:50:14.226Z,10.90
2023-05-05T09:52:46.715Z,10.70
2023-05-05T09:57:51.480Z,10.80
2023-05-05T10:00:23.918Z,11.10
2023-05-05T10:03:05.313Z,11.10
2023-05-05T10:05:50.554Z,12.10
2023-05-05T10:08:23.878Z,11.90
2023-05-05T10:10:57.229Z,11.50
2023-05-05T10:13:29.466Z,9.30
2023-05-05T10:16:02.172Z,10.80
2023-05-05T17:07:53.851Z,6.90
2023-05-05T17:10:22.566Z,6.90
2023-05-05T17:12:50.883Z,6.50
2023-05-05T17:17:46.857Z,6.90
2023-05-05T17:20:15.743Z,7.60
2023-05-05T17:22:45.932Z,8.00
2023-05-05T17:25:14.238Z,9.40
2023-05-05T17:27:42.606Z,9.10
2023-05-05T17:30:12.406Z,8.50
2023-05-05T17:32:40.857Z,7.20
2023-05-05T17:35:10.616Z,9.20
2023-05-05T17:37:39.195Z,9.30
2023-05-05T17:40:09.226Z,9.40
2023-05-05T17:42:37.609Z,10.10
2023-05-05T17:45:08.921Z,10.50
2023-05-05T17:47:37.727Z,10.40
2023-05-05T17:50:10.060Z,12.40
2023-05-05T17:52:39.781Z,9.20
2023-05-05T17:55:09.904Z,11.60
2023-05-05T17:57:38.576Z,11.00
2023-05-05T18:00:09.712Z,10.60
2023-05-05T18:02:41.324Z,10.80
2023-05-05T18:05:10.463Z,10.50
2023-05-05T18:07:39.046Z,11.20
2023-05-05T18:12:38.251Z,10.40
2023-05-05T18:15:09.145Z,13.90
2023-05-05T18:17:37.826Z,13.30
2023-05-05T18:20:09.574Z,12.00
2023-05-05T18:22:37.978Z,13.30
2023-05-05T18:25:09.586Z,12.20
2023-05-05T18:27:38.300Z,14.40
2023-05-05T18:30:08.970Z,14.90
2023-05-05T18:32:37.545Z,15.00
2023-05-05T18:35:08.132Z,14.90
2023-05-05T18:37:36.876Z,14.00
2023-05-05T18:40:09.308Z,15.10
2023-05-05T18:42:37.685Z,15.20
2023-05-05T18:47:38.066Z,15.20
2023-05-05T18:50:09.245Z,17.10
2023-05-05T18:52:37.633Z,16.10
2023-05-05T18:55:06.721Z,16.30
2023-05-05T18:57:35.181Z,16.90
2023-05-05T19:00:04.147Z,17.80
2023-05-05T19:02:32.562Z,18.20
2023-05-05T19:05:01.390Z,18.70
2023-05-05T19:07:35.472Z,20.60
2023-05-05T19:10:06.138Z,18.10
2023-05-05T19:12:34.556Z,22.00
2023-05-05T19:15:02.969Z,19.40
2023-05-05T19:19:58.866Z,24.40
2023-05-05T19:24:54.674Z,17.70
2023-05-05T19:27:23.063Z,20.70
2023-05-05T19:32:20.383Z,18.60
2023-05-05T19:34:49.086Z,21.10
2023-05-05T19:37:17.412Z,19.60
2023-05-05T19:42:13.577Z,20.40
2023-05-05T19:44:41.965Z,25.00
2023-05-05T19:47:10.962Z,19.60
2023-05-05T19:49:39.817Z,25.30
2023-05-05T19:52:08.114Z,23.70
2023-05-05T19:54:36.751Z,24.50
2023-05-05T19:57:06.587Z,27.10
2023-05-05T19:59:34.985Z,26.60
2023-05-05T20:02:03.383Z,24.20
2023-05-05T20:04:31.908Z,24.50
2023-05-05T20:09:27.832Z,19.90
2023-05-05T20:14:24.373Z,21.70
2023-05-05T20:19:20.301Z,20.30
2023-05-05T20:24:16.547Z,17.50
2023-05-05T20:26:44.888Z,22.30
2023-05-05T20:31:42.419Z,17.60
2023-05-05T20:36:38.463Z,20.00
2023-05-05T20:39:07.490Z,24.10
2023-05-05T20:41:37.391Z,21.30
2023-05-05T20:44:06.041Z,23.30
2023-05-05T20:46:34.613Z,21.30
2023-05-05T20:49:02.960Z,23.60
2023-05-05T20:51:33.561Z,22.80
2023-05-05T20:54:02.047Z,24.00
2023-05-05T20:58:57.811Z,21.60
2023-05-05T21:03:53.720Z,23.80
2023-05-05T21:06:22.018Z,25.40
2023-05-05T21:08:50.392Z,25.50
2023-05-05T21:13:46.142Z,26.90
2023-05-05T21:16:14.471Z,24.40
2023-05-05T21:21:14.631Z,20.80
2023-05-05T21:23:42.990Z,25.40
2023-05-05T21:28:38.781Z,20.60
2023-05-05T21:31:21.066Z,27.60
2023-05-05T21:33:50.568Z,22.50
2023-05-05T21:38:47.216Z,24.40
2023-05-05T21:43:43.132Z,20.90
2023-05-05T21:46:11.466Z,23.90
2023-05-05T21:51:09.036Z,21.50
2023-05-05T21:56:07.124Z,22.90
2023-05-05T21:58:35.503Z,21.30
2023-05-05T22:03:31.861Z,20.80
2023-05-05T22:06:00.496Z,22.00
2023-05-05T22:10:56.372Z,19.50
2023-05-05T22:15:52.479Z,19.40
2023-05-05T22:18:20.893Z,24.10
2023-05-05T22:23:18.053Z,19.10
2023-05-05T22:25:46.442Z,20.40
2023-05-05T22:30:42.353Z,18.90
2023-05-05T22:35:38.625Z,15.90
2023-05-05T22:40:34.911Z,16.90
2023-05-05T22:43:03.291Z,19.20
2023-05-05T22:47:59.145Z,16.70
2023-05-05T22:50:27.568Z,17.00
2023-05-05T22:55:24.159Z,18.30
2023-05-05T22:57:52.752Z,19.40
2023-05-05T23:00:21.313Z,18.90
2023-05-05T23:02:49.675Z,19.10
2023-05-05T23:07:45.689Z,17.60
2023-05-05T23:12:41.841Z,16.60
2023-05-05T23:15:11.799Z,15.70
2023-05-05T23:17:40.441Z,16.40
2023-05-05T23:22:39.846Z,18.50
2023-05-05T23:27:37.645Z,16.70
2023-05-05T23:30:08.561Z,19.50
2023-05-05T23:32:38.111Z,18.30
2023-05-05T23:35:09.049Z,17.60
2023-05-05T23:37:37.585Z,17.20
2023-05-05T23:42:35.042Z,16.40
2023-05-05T23:47:31.566Z,17.00
2023-05-05T23:50:00.172Z,17.70
2023-05-05T23:52:28.609Z,17.10
2023-05-05T23:57:24.749Z,15.60
2023-05-05T23:59:53.604Z,14.10
